罗盘
风向 的 风向 140° Edmonton / Calmar (Maplelane Farm) 7/25
风: 5 kt, 2 beaufort

3 kt

4 kt
改变
0 6.000 12.000 18.000 24.000 30.000
FEW 14.000 ft
BKN 24.000 ft
METAR CYEG 110500Z 14005KT 20SM FEW140 BKN240 16/15 A3001 RMK AC2CI4 SLP165 DENSITY ALT 3000FT

METAR Edmonton / Calmar (Maplelane Farm) - CMF2

Edmonton / Calmar (Maplelane Farm)是Edmonton,加拿大中的小机场。 该机场有一条跑道: 7/25. 该领域的国际民航组织标志是CMF2.

这份报告是针对2022年8月10日 11:00 下午, 当地时间在Edmonton International Airport进行的。

机场观察

风向为140°,速度为5 kt。

可见度为20 mi。

有几云在14.000 ft的高度 和 碎云在24.000 ft的高度。 破损或更高的上限为24.000 ft。

温度和风寒是61 °F。 露点为59 °F,相对湿度为94%。 海平面上的气压为30,01 inHg (QNH)。

白天

今天,太阳从6:09 上午升起,在9:10 下午降落。 这适用于Edmonton / Calmar (Maplelane Farm),世界夏令时可能有所不同。 当地时间与世界标准时间之间的时差为-6 小时。 夏令时目前正在进行中。

公司介绍

我们没有关于这个机场的公司信息。

体会

到Vliegles.nl去找飞行课程,跳伞和其他飞行体验。 浏览页面,了解Edmonton / Calmar (Maplelane Farm)附近所有可用的活动。 你也可以使用搜索功能来寻找你所在地附近的特定飞行课程、跳伞或其他飞行体验。

跑道

Id 标题 侧风 逆风 侧风 %
7/25 092°-272° 4 kt 3 kt 74 %

逆风成分最大的方向会被突出显示,并用于横风计算。 这并不一定意味着这个方向在使用。

乌云

14.000 ft FEW 几云
24.000 ft BKN 碎云

温度 & 天气

温度 61 °F
露点 59 °F
相对湿度 94%
Kp-index 1  

评论

SLP165海平面压力为30,02 inHg (30,02 inHg)
AC2CI4 DENSITY ALT 3000FT

白天

日出
6:08 上午 (6h 49m)
中午
1:39 下午
日落
9:10 下午

小工具

你想在你的网站上有一个关于Edmonton / Calmar (Maplelane Farm)的当前航空天气(METAR)的小部件吗?

</> 显示HTML代码

我们和第三方通过cookies跟踪您在我们网站上的上网行为。如果您继续,我们认为您同意我们的cookie政策。 了解更多